createdAt,value
2023-09-21T00:00:54.664Z,983.60
2023-09-21T00:01:54.671Z,983.62
2023-09-21T00:02:54.671Z,983.63
2023-09-21T00:03:54.922Z,983.57
2023-09-21T00:04:54.608Z,983.62
2023-09-21T00:05:54.702Z,983.60
2023-09-21T00:06:54.599Z,983.50
2023-09-21T00:07:54.579Z,983.56
2023-09-21T00:08:54.597Z,983.51
2023-09-21T00:09:54.590Z,983.53
2023-09-21T00:10:54.581Z,983.48
2023-09-21T00:11:54.586Z,983.52
2023-09-21T00:12:54.543Z,983.48
2023-09-21T00:13:54.532Z,983.45
2023-09-21T00:14:54.611Z,983.45
2023-09-21T00:15:54.543Z,983.48
2023-09-21T00:16:54.510Z,983.41
2023-09-21T00:17:54.575Z,983.45
2023-09-21T00:18:54.553Z,983.44
2023-09-21T00:19:54.511Z,983.41
2023-09-21T00:20:54.526Z,983.36
2023-09-21T00:21:54.469Z,983.40
2023-09-21T00:22:54.487Z,983.33
2023-09-21T00:23:54.549Z,983.35
2023-09-21T00:24:54.469Z,983.32
2023-09-21T00:25:54.450Z,983.26
2023-09-21T00:26:54.458Z,983.31
2023-09-21T00:27:54.430Z,983.29
2023-09-21T00:28:54.414Z,983.29
2023-09-21T00:29:54.513Z,983.30
2023-09-21T00:30:54.400Z,983.28
2023-09-21T00:31:54.433Z,983.32
2023-09-21T00:32:54.527Z,983.31
2023-09-21T00:33:54.372Z,983.27
2023-09-21T00:34:54.391Z,983.24
2023-09-21T00:35:54.407Z,983.30
2023-09-21T00:36:54.350Z,983.22
2023-09-21T00:37:54.341Z,983.30
2023-09-21T00:38:54.413Z,983.28
2023-09-21T00:39:54.391Z,983.32
2023-09-21T00:40:54.309Z,983.29
2023-09-21T00:41:54.365Z,983.26
2023-09-21T00:42:54.305Z,983.29
2023-09-21T00:43:54.311Z,983.29
2023-09-21T00:44:54.302Z,983.25
2023-09-21T00:45:54.377Z,983.23
2023-09-21T00:46:54.270Z,983.26
2023-09-21T00:47:54.434Z,983.23
2023-09-21T00:48:54.315Z,983.26
2023-09-21T00:49:54.260Z,983.25
2023-09-21T00:50:54.256Z,983.19
2023-09-21T00:51:55.226Z,983.22
2023-09-21T00:52:54.243Z,983.13
2023-09-21T00:53:54.271Z,983.16
2023-09-21T00:54:54.210Z,983.17
2023-09-21T00:55:54.201Z,983.15
2023-09-21T00:56:54.229Z,983.15
2023-09-21T00:57:54.237Z,983.12
2023-09-21T00:58:54.174Z,983.16
2023-09-21T00:59:54.186Z,983.16
2023-09-21T01:00:54.158Z,983.16
2023-09-21T01:01:54.173Z,983.14
2023-09-21T01:02:54.280Z,983.13
2023-09-21T01:03:54.353Z,983.18
2023-09-21T01:04:54.128Z,983.12
2023-09-21T01:05:54.131Z,983.14
2023-09-21T01:06:54.109Z,983.15
2023-09-21T01:07:54.124Z,983.15
2023-09-21T01:08:54.163Z,983.16
2023-09-21T01:09:54.088Z,983.13
2023-09-21T01:10:54.077Z,983.09
2023-09-21T01:11:54.081Z,983.06
2023-09-21T01:12:54.085Z,983.07
2023-09-21T01:13:54.047Z,983.05
2023-09-21T01:14:54.086Z,983.09
2023-09-21T01:15:54.044Z,983.09
2023-09-21T01:16:54.025Z,983.11
2023-09-21T01:17:54.105Z,983.02
2023-09-21T01:18:54.167Z,983.05
2023-09-21T01:19:54.002Z,983.07
2023-09-21T01:20:54.006Z,983.01
2023-09-21T01:21:54.024Z,982.99
2023-09-21T01:22:54.007Z,983.03
2023-09-21T01:23:54.021Z,983.00
2023-09-21T01:24:53.963Z,983.05
2023-09-21T01:25:53.953Z,983.03
2023-09-21T01:26:53.993Z,983.02
2023-09-21T01:27:53.941Z,983.03
2023-09-21T01:28:53.929Z,983.06
2023-09-21T01:29:53.974Z,983.03
2023-09-21T01:30:53.931Z,983.07
2023-09-21T01:31:53.948Z,983.02
2023-09-21T01:32:53.965Z,983.02
2023-09-21T01:33:53.958Z,983.01
2023-09-21T01:34:53.889Z,983.05
2023-09-21T01:35:53.921Z,983.01
2023-09-21T01:36:53.893Z,982.96
2023-09-21T01:37:53.858Z,982.98
2023-09-21T01:38:54.090Z,982.98
2023-09-21T01:39:53.843Z,982.97
2023-09-21T01:40:53.859Z,982.99
2023-09-21T01:41:53.838Z,983.00
2023-09-21T01:42:53.821Z,982.94
2023-09-21T01:43:53.812Z,982.91
2023-09-21T01:44:53.816Z,982.85
2023-09-21T01:45:53.850Z,982.89
2023-09-21T01:46:53.793Z,982.89
2023-09-21T01:47:53.866Z,982.92
2023-09-21T01:48:53.973Z,982.90
2023-09-21T01:49:53.792Z,982.84
2023-09-21T01:50:53.792Z,982.85
2023-09-21T01:51:53.749Z,982.88
2023-09-21T01:52:53.738Z,982.85
2023-09-21T01:53:53.751Z,982.87
2023-09-21T01:54:53.776Z,982.77
2023-09-21T01:55:53.719Z,982.81
2023-09-21T01:56:53.758Z,982.82
2023-09-21T01:57:53.704Z,982.83
2023-09-21T01:58:53.694Z,982.85
2023-09-21T01:59:53.789Z,982.84
2023-09-21T02:00:53.726Z,982.85
2023-09-21T02:01:53.673Z,982.82
2023-09-21T02:02:53.926Z,982.80
2023-09-21T02:03:53.708Z,982.79
2023-09-21T02:04:53.668Z,982.77
2023-09-21T02:05:53.688Z,982.73
2023-09-21T02:06:54.474Z,982.77
2023-09-21T02:07:53.621Z,982.71
2023-09-21T02:08:53.704Z,982.68
2023-09-21T02:09:53.636Z,982.76
2023-09-21T02:10:53.595Z,982.74
2023-09-21T02:11:53.638Z,982.66
2023-09-21T02:12:53.579Z,982.69
2023-09-21T02:13:53.624Z,982.72
2023-09-21T02:14:53.611Z,982.69
2023-09-21T02:15:54.174Z,982.69
2023-09-21T02:16:53.637Z,982.67
2023-09-21T02:17:53.622Z,982.67
2023-09-21T02:18:53.594Z,982.64
2023-09-21T02:19:53.526Z,982.62
2023-09-21T02:20:55.713Z,982.62
2023-09-21T02:21:54.516Z,982.63
2023-09-21T02:22:53.594Z,982.65
2023-09-21T02:23:53.607Z,982.63
2023-09-21T02:24:53.487Z,982.58
2023-09-21T02:25:53.716Z,982.62
2023-09-21T02:26:53.526Z,982.62
2023-09-21T02:27:53.490Z,982.59
2023-09-21T02:28:53.457Z,982.59
2023-09-21T02:29:53.575Z,982.58
2023-09-21T02:30:53.461Z,982.52
2023-09-21T02:31:53.432Z,982.52
2023-09-21T02:32:53.532Z,982.53
2023-09-21T02:33:53.436Z,982.55
2023-09-21T02:34:53.407Z,982.51
2023-09-21T02:35:53.416Z,982.54
2023-09-21T02:36:53.393Z,982.51
2023-09-21T02:37:53.425Z,982.50
2023-09-21T02:38:53.378Z,982.42
2023-09-21T02:39:53.371Z,982.41
2023-09-21T02:40:53.363Z,982.46
2023-09-21T02:41:53.421Z,982.40
2023-09-21T02:42:53.378Z,982.41
2023-09-21T02:43:53.333Z,982.41
2023-09-21T02:44:53.332Z,982.37
2023-09-21T02:45:53.317Z,982.39
2023-09-21T02:46:53.378Z,982.39
2023-09-21T02:47:53.417Z,982.39
2023-09-21T02:48:53.323Z,982.39
2023-09-21T02:49:53.294Z,982.40
2023-09-21T02:50:53.296Z,982.41
2023-09-21T02:51:53.295Z,982.41
2023-09-21T02:52:53.267Z,982.34
2023-09-21T02:53:53.276Z,982.26
2023-09-21T02:54:53.258Z,982.30
2023-09-21T02:55:53.235Z,982.35
2023-09-21T02:56:53.284Z,982.32
2023-09-21T02:57:53.222Z,982.35
2023-09-21T02:58:53.218Z,982.27
2023-09-21T02:59:53.256Z,982.30
2023-09-21T03:00:53.284Z,982.25
2023-09-21T03:01:53.217Z,982.25
2023-09-21T03:02:53.303Z,982.26
2023-09-21T03:03:53.336Z,982.25
2023-09-21T03:04:53.171Z,982.23
2023-09-21T03:05:53.444Z,982.23
2023-09-21T03:06:53.173Z,982.24
2023-09-21T03:07:53.144Z,982.21
2023-09-21T03:08:53.159Z,982.17
2023-09-21T03:09:53.139Z,982.18
2023-09-21T03:10:53.152Z,982.16
2023-09-21T03:11:53.175Z,982.15
2023-09-21T03:12:53.109Z,982.21
2023-09-21T03:13:53.097Z,982.12
2023-09-21T03:14:53.122Z,982.19
2023-09-21T03:15:53.271Z,982.18
2023-09-21T03:16:53.091Z,982.14
2023-09-21T03:17:53.211Z,982.21
2023-09-21T03:18:53.100Z,982.16
2023-09-21T03:19:53.057Z,982.18
2023-09-21T03:20:53.266Z,982.13
2023-09-21T03:21:53.032Z,982.17
2023-09-21T03:22:53.029Z,982.11
2023-09-21T03:23:53.033Z,982.15
2023-09-21T03:24:53.009Z,982.22
2023-09-21T03:25:53.020Z,982.17
2023-09-21T03:26:53.011Z,982.15
2023-09-21T03:27:52.988Z,982.13
2023-09-21T03:28:52.973Z,982.15
2023-09-21T03:29:52.997Z,982.11
2023-09-21T03:30:53.082Z,982.20
2023-09-21T03:31:52.951Z,982.17
2023-09-21T03:32:53.104Z,982.14
2023-09-21T03:33:52.940Z,982.15
2023-09-21T03:34:52.966Z,982.14
2023-09-21T03:35:52.988Z,982.18
2023-09-21T03:36:52.916Z,982.10
2023-09-21T03:37:52.909Z,982.13
2023-09-21T03:38:52.918Z,982.12
2023-09-21T03:39:52.917Z,982.11
2023-09-21T03:40:52.919Z,982.11
2023-09-21T03:41:52.939Z,982.11
2023-09-21T03:42:52.876Z,982.11
2023-09-21T03:43:52.865Z,982.04
2023-09-21T03:44:52.912Z,982.03
2023-09-21T03:45:52.847Z,982.01
2023-09-21T03:46:52.841Z,982.06
2023-09-21T03:47:52.874Z,982.12
2023-09-21T03:48:52.953Z,982.10
2023-09-21T03:49:52.848Z,982.05
2023-09-21T03:50:52.862Z,982.01
2023-09-21T03:51:52.806Z,981.96
2023-09-21T03:52:52.797Z,981.98
2023-09-21T03:53:52.860Z,981.96
2023-09-21T03:54:52.809Z,981.95
2023-09-21T03:55:52.776Z,981.98
2023-09-21T03:56:52.813Z,981.92
2023-09-21T03:57:52.759Z,981.97
2023-09-21T03:58:52.777Z,981.92
2023-09-21T03:59:52.793Z,981.91
2023-09-21T04:00:52.744Z,981.92
2023-09-21T04:01:52.745Z,981.88
2023-09-21T04:02:52.844Z,981.93
2023-09-21T04:03:52.869Z,981.89
2023-09-21T04:04:52.737Z,981.86
2023-09-21T04:05:52.732Z,981.85
2023-09-21T04:06:52.693Z,981.86
2023-09-21T04:07:52.728Z,981.89
2023-09-21T04:08:52.723Z,981.86
2023-09-21T04:09:52.676Z,981.86
2023-09-21T04:10:52.669Z,981.79
2023-09-21T04:11:52.685Z,981.84
2023-09-21T04:12:52.677Z,981.75
2023-09-21T04:13:57.310Z,981.79
2023-09-21T04:14:53.650Z,981.75
2023-09-21T04:15:52.625Z,981.72
2023-09-21T04:16:52.627Z,981.72
2023-09-21T04:17:52.712Z,981.74
2023-09-21T04:18:52.643Z,981.68
2023-09-21T04:19:52.633Z,981.74
2023-09-21T04:21:02.578Z,981.64
2023-09-21T04:21:54.604Z,981.68
2023-09-21T04:22:52.615Z,981.69
2023-09-21T04:23:52.595Z,981.67
2023-09-21T04:24:52.666Z,981.61
2023-09-21T04:25:52.559Z,981.66
2023-09-21T04:26:52.589Z,981.63
2023-09-21T04:27:52.546Z,981.63
2023-09-21T04:28:52.521Z,981.64
2023-09-21T04:29:52.543Z,981.66
2023-09-21T04:30:52.517Z,981.64
2023-09-21T04:31:52.607Z,981.64
2023-09-21T04:32:52.627Z,981.71
2023-09-21T04:33:52.487Z,981.69
2023-09-21T04:34:52.476Z,981.62
2023-09-21T04:35:52.487Z,981.63
2023-09-21T04:36:53.487Z,981.62
2023-09-21T04:37:52.769Z,981.61
2023-09-21T04:38:52.502Z,981.59
2023-09-21T04:39:52.436Z,981.63
2023-09-21T04:40:52.428Z,981.55
2023-09-21T04:41:52.507Z,981.58
2023-09-21T04:42:55.046Z,981.61
2023-09-21T04:43:52.407Z,981.61
2023-09-21T04:44:52.420Z,981.63
2023-09-21T04:45:52.433Z,981.57
2023-09-21T04:46:52.406Z,981.61
2023-09-21T04:47:52.415Z,981.61
2023-09-21T04:48:52.417Z,981.59
2023-09-21T04:49:52.357Z,981.51
2023-09-21T04:50:52.453Z,981.54
2023-09-21T04:51:52.360Z,981.62
2023-09-21T04:52:52.342Z,981.51
2023-09-21T04:53:52.330Z,981.49
2023-09-21T04:54:52.314Z,981.59
2023-09-21T04:55:52.313Z,981.57
2023-09-21T04:56:52.367Z,981.62
2023-09-21T04:57:52.286Z,981.50
2023-09-21T04:58:52.281Z,981.60
2023-09-21T04:59:52.291Z,981.57
2023-09-21T05:00:52.298Z,981.54
2023-09-21T05:01:52.279Z,981.53
2023-09-21T05:02:52.361Z,981.57
2023-09-21T05:03:52.427Z,981.58
2023-09-21T05:04:52.281Z,981.54
2023-09-21T05:05:52.272Z,981.60
2023-09-21T05:06:52.237Z,981.56
2023-09-21T05:07:52.206Z,981.55
2023-09-21T05:08:52.295Z,981.54
2023-09-21T05:09:52.194Z,981.57
2023-09-21T05:10:52.206Z,981.54
2023-09-21T05:11:52.223Z,981.52
2023-09-21T05:12:52.172Z,981.52
2023-09-21T05:13:52.155Z,981.53
2023-09-21T05:14:52.254Z,981.51
2023-09-21T05:15:52.238Z,981.49
2023-09-21T05:16:52.155Z,981.59
2023-09-21T05:17:52.204Z,981.56
2023-09-21T05:18:52.168Z,981.54
2023-09-21T05:19:52.109Z,981.57
2023-09-21T05:20:52.136Z,981.54
2023-09-21T05:21:52.105Z,981.60
2023-09-21T05:22:52.085Z,981.57
2023-09-21T05:23:52.131Z,981.58
2023-09-21T05:24:52.095Z,981.57
2023-09-21T05:25:52.084Z,981.55
2023-09-21T05:26:52.082Z,981.57
2023-09-21T05:27:52.040Z,981.45
2023-09-21T05:28:52.033Z,981.52
2023-09-21T05:29:52.069Z,981.45
2023-09-21T05:30:52.017Z,981.50
2023-09-21T05:31:52.045Z,981.43
2023-09-21T05:32:52.140Z,981.46
2023-09-21T05:33:52.099Z,981.47
2023-09-21T05:34:52.007Z,981.47
2023-09-21T05:35:52.008Z,981.47
2023-09-21T05:36:51.975Z,981.51
2023-09-21T05:37:51.963Z,981.51
2023-09-21T05:38:52.184Z,981.46
2023-09-21T05:39:51.971Z,981.48
2023-09-21T05:40:51.937Z,981.43
2023-09-21T05:41:51.956Z,981.43
2023-09-21T05:42:51.937Z,981.42
2023-09-21T05:43:51.944Z,981.43
2023-09-21T05:44:51.912Z,981.47
2023-09-21T05:45:51.918Z,981.47
2023-09-21T05:46:51.891Z,981.40
2023-09-21T05:47:51.997Z,981.41
2023-09-21T05:48:52.033Z,981.47
2023-09-21T05:49:51.901Z,981.41
2023-09-21T05:50:51.953Z,981.49
2023-09-21T05:51:51.851Z,981.45
2023-09-21T05:52:51.845Z,981.47
2023-09-21T05:53:51.899Z,981.51
2023-09-21T05:54:51.837Z,981.51
2023-09-21T05:55:51.814Z,981.57
2023-09-21T05:56:51.847Z,981.52
2023-09-21T05:57:51.827Z,981.50
2023-09-21T05:58:51.825Z,981.53
2023-09-21T05:59:51.886Z,981.58
2023-09-21T06:00:51.787Z,981.50
2023-09-21T06:01:51.796Z,981.69
2023-09-21T06:02:51.881Z,981.67
2023-09-21T06:03:51.943Z,981.63
2023-09-21T06:04:51.808Z,981.69
2023-09-21T06:05:51.789Z,981.64
2023-09-21T06:06:51.732Z,981.69
2023-09-21T06:07:51.751Z,981.70
2023-09-21T06:08:51.749Z,981.71
2023-09-21T06:09:51.731Z,981.71
2023-09-21T06:10:52.730Z,981.56
2023-09-21T06:11:51.752Z,981.54
2023-09-21T06:12:51.738Z,981.58
2023-09-21T06:13:51.682Z,981.51
2023-09-21T06:14:51.801Z,981.52
2023-09-21T06:15:51.693Z,981.50
2023-09-21T06:16:51.684Z,981.58
2023-09-21T06:17:51.697Z,981.52
2023-09-21T06:18:51.669Z,981.51
2023-09-21T06:19:51.627Z,981.55
2023-09-21T06:20:51.632Z,981.54
2023-09-21T06:21:51.635Z,981.54
2023-09-21T06:22:51.614Z,981.54
2023-09-21T06:23:51.689Z,981.51
2023-09-21T06:24:51.593Z,981.56
2023-09-21T06:25:51.589Z,981.53
2023-09-21T06:26:51.630Z,981.53
2023-09-21T06:27:51.602Z,981.47
2023-09-21T06:28:51.554Z,981.52
2023-09-21T06:29:52.613Z,981.47
2023-09-21T06:30:51.616Z,981.43
2023-09-21T06:32:09.410Z,981.44
2023-09-21T06:32:53.564Z,981.46
2023-09-21T06:33:51.547Z,981.49
2023-09-21T06:34:51.512Z,981.49
2023-09-21T06:35:51.577Z,981.48
2023-09-21T06:36:51.495Z,981.43
2023-09-21T06:37:52.489Z,981.50
2023-09-21T06:38:51.566Z,981.38
2023-09-21T06:39:51.473Z,981.40
2023-09-21T06:40:51.490Z,981.42
2023-09-21T06:41:51.478Z,981.44
2023-09-21T06:42:51.451Z,981.44
2023-09-21T06:43:51.445Z,981.44
2023-09-21T06:44:51.465Z,981.43
2023-09-21T06:45:51.500Z,981.37
2023-09-21T06:46:51.414Z,981.27
2023-09-21T06:47:51.537Z,981.37
2023-09-21T06:48:51.418Z,981.33
2023-09-21T06:49:51.438Z,981.29
2023-09-21T06:50:51.435Z,981.33
2023-09-21T06:51:51.442Z,981.35
2023-09-21T06:52:51.367Z,981.37
2023-09-21T06:53:51.399Z,981.33
2023-09-21T06:54:51.383Z,981.29
2023-09-21T06:55:51.349Z,981.27
2023-09-21T06:56:51.335Z,981.27
2023-09-21T06:57:52.328Z,981.28
2023-09-21T06:58:51.316Z,981.27
2023-09-21T06:59:51.409Z,981.25
2023-09-21T07:00:51.337Z,981.33
2023-09-21T07:01:51.513Z,981.34
2023-09-21T07:02:51.451Z,981.35
2023-09-21T07:03:51.433Z,981.37
2023-09-21T07:04:51.309Z,981.33
2023-09-21T07:05:51.395Z,981.31
2023-09-21T07:06:51.326Z,981.36
2023-09-21T07:07:51.257Z,981.37
2023-09-21T07:08:51.299Z,981.38
2023-09-21T07:09:51.238Z,981.39
2023-09-21T07:10:51.236Z,981.31
2023-09-21T07:11:51.225Z,981.42
2023-09-21T07:12:51.214Z,981.34
2023-09-21T07:13:51.230Z,981.36
2023-09-21T07:14:51.253Z,981.36
2023-09-21T07:15:51.207Z,981.37
2023-09-21T07:16:51.181Z,981.34
2023-09-21T07:17:51.223Z,981.39
2023-09-21T07:18:51.231Z,981.39
2023-09-21T07:19:51.154Z,981.34
2023-09-21T07:20:51.170Z,981.30
2023-09-21T07:21:51.139Z,981.31
2023-09-21T07:22:51.171Z,981.30
2023-09-21T07:23:51.148Z,981.30
2023-09-21T07:24:51.136Z,981.32
2023-09-21T07:25:51.111Z,981.29
2023-09-21T07:26:51.133Z,981.25
2023-09-21T07:27:51.117Z,981.25
2023-09-21T07:28:51.095Z,981.23
2023-09-21T07:29:51.103Z,981.26
2023-09-21T07:30:51.085Z,981.24
2023-09-21T07:31:51.095Z,981.22
2023-09-21T07:32:51.137Z,981.25
2023-09-21T07:33:51.069Z,981.20
2023-09-21T07:34:51.042Z,981.24
2023-09-21T07:35:51.067Z,981.13
2023-09-21T07:36:51.058Z,981.19
2023-09-21T07:37:51.028Z,981.15
2023-09-21T07:38:51.018Z,981.18
2023-09-21T07:39:51.002Z,981.22
2023-09-21T07:40:50.994Z,981.20
2023-09-21T07:41:51.028Z,981.23
2023-09-21T07:42:51.286Z,981.27
2023-09-21T07:43:50.976Z,981.21
2023-09-21T07:44:51.035Z,981.14
2023-09-21T07:45:50.963Z,981.16
2023-09-21T07:46:50.993Z,981.16
2023-09-21T07:47:51.050Z,981.15
2023-09-21T07:48:50.980Z,981.17
2023-09-21T07:49:50.926Z,981.10
2023-09-21T07:50:51.041Z,981.12
2023-09-21T07:51:51.030Z,981.02
2023-09-21T07:52:50.903Z,981.02
2023-09-21T07:53:50.899Z,981.06
2023-09-21T07:54:50.903Z,981.05
2023-09-21T07:55:50.950Z,981.05
2023-09-21T07:56:50.879Z,981.02
2023-09-21T07:57:50.866Z,980.97
2023-09-21T07:58:50.854Z,980.97
2023-09-21T07:59:50.874Z,981.02
2023-09-21T08:00:50.875Z,980.97
2023-09-21T08:01:50.831Z,981.00
2023-09-21T08:02:51.058Z,981.00
2023-09-21T08:03:50.918Z,981.06
2023-09-21T08:04:50.969Z,981.03
2023-09-21T08:05:50.861Z,981.06
2023-09-21T08:06:50.789Z,981.07
2023-09-21T08:07:52.797Z,981.00
2023-09-21T08:08:51.791Z,981.01
2023-09-21T08:09:50.811Z,980.99
2023-09-21T08:10:50.774Z,981.07
2023-09-21T08:11:50.744Z,980.99
2023-09-21T08:12:51.742Z,981.01
2023-09-21T08:13:50.736Z,981.00
2023-09-21T08:14:50.764Z,981.01
2023-09-21T08:15:50.731Z,980.91
2023-09-21T08:16:50.725Z,980.96
2023-09-21T08:17:50.825Z,980.96
2023-09-21T08:18:50.801Z,981.00
2023-09-21T08:19:50.719Z,981.03
2023-09-21T08:20:50.727Z,981.01
2023-09-21T08:21:50.671Z,981.05
2023-09-21T08:22:50.729Z,980.98
2023-09-21T08:23:50.725Z,981.03
2023-09-21T08:24:50.673Z,981.03
2023-09-21T08:25:50.638Z,980.94
2023-09-21T08:26:50.660Z,980.94
2023-09-21T08:27:50.623Z,980.87
2023-09-21T08:28:50.640Z,980.93
2023-09-21T08:29:50.614Z,980.94
2023-09-21T08:30:50.664Z,980.92
2023-09-21T08:31:50.589Z,980.81
2023-09-21T08:32:50.658Z,980.92
2023-09-21T08:33:50.613Z,980.91
2023-09-21T08:34:50.569Z,980.89
2023-09-21T08:35:50.583Z,980.87
2023-09-21T08:36:50.558Z,980.86
2023-09-21T08:37:50.557Z,980.82
2023-09-21T08:38:50.588Z,980.87
2023-09-21T08:39:50.559Z,980.86
2023-09-21T08:40:50.519Z,980.91
2023-09-21T08:41:50.583Z,980.92
2023-09-21T08:42:50.527Z,980.99
2023-09-21T08:43:50.518Z,980.96
2023-09-21T08:44:50.582Z,981.03
2023-09-21T08:45:50.488Z,981.04
2023-09-21T08:46:50.473Z,980.96
2023-09-21T08:47:50.570Z,980.90
2023-09-21T08:48:50.528Z,980.90
2023-09-21T08:49:50.452Z,980.86
2023-09-21T08:50:50.475Z,980.94
2023-09-21T08:51:50.437Z,980.88
2023-09-21T08:52:50.454Z,980.78
2023-09-21T08:53:52.628Z,980.84
2023-09-21T08:54:50.410Z,980.76
2023-09-21T08:55:50.404Z,980.81
2023-09-21T08:56:50.474Z,980.76
2023-09-21T08:57:50.409Z,980.79
2023-09-21T08:58:50.375Z,980.81
2023-09-21T08:59:50.420Z,980.85
2023-09-21T09:00:50.368Z,980.80
2023-09-21T09:01:50.429Z,980.87
2023-09-21T09:02:50.442Z,980.86
2023-09-21T09:03:50.472Z,980.82
2023-09-21T09:04:50.328Z,980.81
2023-09-21T09:05:50.369Z,980.84
2023-09-21T09:06:50.338Z,980.79
2023-09-21T09:07:50.310Z,980.80
2023-09-21T09:08:50.373Z,980.84
2023-09-21T09:09:50.317Z,980.85
2023-09-21T09:10:50.287Z,980.83
2023-09-21T09:11:50.334Z,980.81
2023-09-21T09:12:50.285Z,980.85
2023-09-21T09:13:50.262Z,980.83
2023-09-21T09:14:50.286Z,980.83
2023-09-21T09:15:50.294Z,980.81
2023-09-21T09:16:50.265Z,980.82
2023-09-21T09:17:53.424Z,980.74
2023-09-21T09:18:50.262Z,980.73
2023-09-21T09:19:50.252Z,980.75
2023-09-21T09:20:50.248Z,980.75
2023-09-21T09:21:50.210Z,980.77
2023-09-21T09:22:50.201Z,980.77
2023-09-21T09:23:50.225Z,980.75
2023-09-21T09:24:50.195Z,980.72
2023-09-21T09:25:50.194Z,980.72
2023-09-21T09:26:50.201Z,980.76
2023-09-21T09:27:50.150Z,980.74
2023-09-21T09:28:50.148Z,980.72
2023-09-21T09:29:50.197Z,980.69
2023-09-21T09:30:50.152Z,980.78
2023-09-21T09:31:50.154Z,980.71
2023-09-21T09:32:50.392Z,980.65
2023-09-21T09:33:50.768Z,980.65
2023-09-21T09:34:51.126Z,980.62
2023-09-21T09:35:50.178Z,980.61
2023-09-21T09:36:50.082Z,980.62
2023-09-21T09:37:50.076Z,980.60
2023-09-21T09:38:50.113Z,980.49
2023-09-21T09:39:50.086Z,980.47
2023-09-21T09:40:50.066Z,980.50
2023-09-21T09:41:50.090Z,980.45
2023-09-21T09:42:50.284Z,980.44
2023-09-21T09:43:50.029Z,980.40
2023-09-21T09:44:50.097Z,980.41
2023-09-21T09:45:51.399Z,980.38
2023-09-21T09:46:51.026Z,980.39
2023-09-21T09:47:50.019Z,980.37
2023-09-21T09:48:50.062Z,980.32
2023-09-21T09:49:50.005Z,980.29
2023-09-21T09:50:49.993Z,980.32
2023-09-21T09:51:49.968Z,980.33
2023-09-21T09:52:49.964Z,980.31
2023-09-21T09:53:49.975Z,980.21
2023-09-21T09:54:49.945Z,980.28
2023-09-21T09:55:49.940Z,980.18
2023-09-21T09:56:49.930Z,980.20
2023-09-21T09:57:49.926Z,980.13
2023-09-21T09:58:49.936Z,980.11
2023-09-21T09:59:49.909Z,980.12
2023-09-21T10:00:49.882Z,980.11
2023-09-21T10:01:50.965Z,980.17
2023-09-21T10:02:50.061Z,980.09
2023-09-21T10:03:50.115Z,980.11
2023-09-21T10:04:49.868Z,980.11
2023-09-21T10:05:49.857Z,980.11
2023-09-21T10:06:51.880Z,980.18
2023-09-21T10:07:49.869Z,980.15
2023-09-21T10:08:49.826Z,980.17
2023-09-21T10:09:49.831Z,980.16
2023-09-21T10:10:49.814Z,980.21
2023-09-21T10:11:50.594Z,980.17
2023-09-21T10:12:49.819Z,980.11
2023-09-21T10:13:49.792Z,980.12
2023-09-21T10:14:49.783Z,980.06
2023-09-21T10:15:49.803Z,980.07
2023-09-21T10:16:49.793Z,980.05
2023-09-21T10:17:49.847Z,980.01
2023-09-21T10:18:49.765Z,979.98
2023-09-21T10:19:49.744Z,980.00
2023-09-21T10:20:49.745Z,980.02
2023-09-21T10:21:49.753Z,980.07
2023-09-21T10:22:49.722Z,980.05
2023-09-21T10:23:49.712Z,980.03
2023-09-21T10:24:49.708Z,980.02
2023-09-21T10:25:49.703Z,979.96
2023-09-21T10:26:49.847Z,979.99
2023-09-21T10:27:49.674Z,979.90
2023-09-21T10:28:51.085Z,979.85
2023-09-21T10:29:49.663Z,979.90
2023-09-21T10:30:49.705Z,979.88
2023-09-21T10:31:49.669Z,979.88
2023-09-21T10:32:49.696Z,979.86
2023-09-21T10:33:49.664Z,979.85
2023-09-21T10:34:49.684Z,979.85
2023-09-21T10:35:49.649Z,979.88
2023-09-21T10:36:49.978Z,979.94
2023-09-21T10:37:49.601Z,979.86
2023-09-21T10:38:49.596Z,979.89
2023-09-21T10:39:49.588Z,979.94
2023-09-21T10:40:49.605Z,979.92
2023-09-21T10:41:49.573Z,979.91
2023-09-21T10:42:49.626Z,979.96
2023-09-21T10:43:49.556Z,979.87
2023-09-21T10:44:49.565Z,979.85
2023-09-21T10:45:49.654Z,979.80
2023-09-21T10:46:49.640Z,979.79
2023-09-21T10:47:49.796Z,979.76
2023-09-21T10:48:49.560Z,979.74
2023-09-21T10:49:49.546Z,979.78
2023-09-21T10:50:49.533Z,979.78
2023-09-21T10:51:49.496Z,979.72
2023-09-21T10:52:49.514Z,979.72
2023-09-21T10:54:21.425Z,979.71
2023-09-21T10:54:49.496Z,979.71
2023-09-21T10:55:49.465Z,979.72
2023-09-21T10:56:49.452Z,979.70
2023-09-21T10:57:49.446Z,979.74
2023-09-21T10:58:49.640Z,979.74
2023-09-21T10:59:58.576Z,979.69
2023-09-21T11:00:51.440Z,979.75
2023-09-21T11:01:49.428Z,979.70
2023-09-21T11:02:49.468Z,979.71
2023-09-21T11:03:49.408Z,979.67
2023-09-21T11:04:49.455Z,979.71
2023-09-21T11:05:49.418Z,979.65
2023-09-21T11:06:49.389Z,979.63
2023-09-21T11:07:49.374Z,979.62
2023-09-21T11:08:49.455Z,979.63
2023-09-21T11:09:49.392Z,979.62
2023-09-21T11:10:49.356Z,979.62
2023-09-21T11:11:49.333Z,979.57
2023-09-21T11:12:49.322Z,979.59
2023-09-21T11:13:49.342Z,979.54
2023-09-21T11:14:49.377Z,979.54
2023-09-21T11:15:49.373Z,979.52
2023-09-21T11:16:49.357Z,979.55
2023-09-21T11:17:49.437Z,979.49
2023-09-21T11:18:49.482Z,979.52
2023-09-21T11:19:49.273Z,979.52
2023-09-21T11:20:49.259Z,979.52
2023-09-21T11:21:49.276Z,979.48
2023-09-21T11:22:49.419Z,979.52
2023-09-21T11:23:49.267Z,979.43
2023-09-21T11:24:49.237Z,979.38
2023-09-21T11:25:49.217Z,979.45
2023-09-21T11:26:49.220Z,979.46
2023-09-21T11:27:49.254Z,979.38
2023-09-21T11:28:49.214Z,979.38
2023-09-21T11:29:49.194Z,979.43
2023-09-21T11:30:49.300Z,979.35
2023-09-21T11:31:49.206Z,979.41
2023-09-21T11:32:49.232Z,979.37
2023-09-21T11:33:49.217Z,979.39
2023-09-21T11:34:49.152Z,979.36
2023-09-21T11:35:49.149Z,979.32
2023-09-21T11:36:49.147Z,979.31
2023-09-21T11:37:49.160Z,979.31
2023-09-21T11:38:49.125Z,979.30
2023-09-21T11:39:49.120Z,979.33
2023-09-21T11:40:49.107Z,979.33
2023-09-21T11:41:49.119Z,979.32
2023-09-21T11:42:49.115Z,979.27
2023-09-21T11:43:49.088Z,979.24
2023-09-21T11:44:49.072Z,979.25
2023-09-21T11:45:49.229Z,979.18
2023-09-21T11:46:49.268Z,979.25
2023-09-21T11:47:49.083Z,979.23
2023-09-21T11:48:49.508Z,979.13
2023-09-21T11:49:50.038Z,979.18
2023-09-21T11:50:49.035Z,979.16
2023-09-21T11:51:49.136Z,979.13
2023-09-21T11:52:49.019Z,979.12
2023-09-21T11:53:49.043Z,979.12
2023-09-21T11:54:49.078Z,979.08
2023-09-21T11:55:48.994Z,979.11
2023-09-21T11:56:49.012Z,979.06
2023-09-21T11:57:49.167Z,979.10
2023-09-21T11:58:48.982Z,979.13
2023-09-21T11:59:48.993Z,979.06
2023-09-21T12:00:51.431Z,979.06
2023-09-21T12:01:50.010Z,979.07
2023-09-21T12:02:49.212Z,979.00
2023-09-21T12:03:49.802Z,979.05
2023-09-21T12:04:48.963Z,979.01
2023-09-21T12:05:48.952Z,979.08
2023-09-21T12:06:48.945Z,979.07
2023-09-21T12:07:48.921Z,979.04
2023-09-21T12:08:48.893Z,979.03
2023-09-21T12:09:48.885Z,979.11
2023-09-21T12:10:48.908Z,979.00
2023-09-21T12:11:48.872Z,979.05
2023-09-21T12:12:48.866Z,979.04
2023-09-21T12:13:48.856Z,979.08
2023-09-21T12:14:48.860Z,979.05
2023-09-21T12:15:48.877Z,979.07
2023-09-21T12:16:48.850Z,979.02
2023-09-21T12:17:48.846Z,979.06
2023-09-21T12:18:49.125Z,978.97
2023-09-21T12:19:48.834Z,979.00
2023-09-21T12:20:48.824Z,978.96
2023-09-21T12:21:48.794Z,978.92
2023-09-21T12:22:48.841Z,978.95
2023-09-21T12:23:48.783Z,978.92
2023-09-21T12:24:48.792Z,978.94
2023-09-21T12:25:48.772Z,978.91
2023-09-21T12:26:48.759Z,978.92
2023-09-21T12:27:48.749Z,978.92
2023-09-21T12:28:48.913Z,978.92